Terminal Aerodrome Forecast
Issued by NWS

Home | Current Version | Previous Version | Text Only | Print | Product List | Glossary On
Versions: 1 2 3 4 5 6 7 8 9 10 11 12 13 14 15 16 17 18 19 20 21 22 23 24 25 26 27 28 29
908
FTUS41 KBUF 271120
TAFJHW
TAF
KJHW 271120Z 2712/2812 VRB03KT 2SM BR SKC
     FM271300 VRB03KT P6SM FEW250
     FM271500 27004KT P6SM FEW250
     FM280000 VRB03KT P6SM FEW250
     FM280800 18004KT 2SM BR FEW250
      AMD LTD TO CLD VIS AND WIND=

USA.gov is the U.S. government's official web portal to all federal, state and local government web resources and services.